This is the latest recevied weather packets stored in our database for station/object KI6AOK. If no packets are shown the sender has not sent any weather packets the latest 10 day(s).
| Time | Temp. | Humidity | Pressure | Rain* | Wind** | Luminosity | Snow |
|---|---|---|---|---|---|---|---|
| 1778030443 | 17.78° C | 56% | 1015 hPa | 0 mm | - | 98 W/m² | - |
| 1778030141 | 17.78° C | 55% | 1014.7 hPa | 0 mm | - | 97 W/m² | - |
| 1778029837 | 17.78° C | 56% | 1014.8 hPa | 0 mm | - | 102 W/m² | - |
| 1778029537 | 17.78° C | 55% | 1014.8 hPa | 0 mm | - | 121 W/m² | - |
| 1778029233 | 17.78° C | 55% | 1014.6 hPa | 0 mm | - | 131 W/m² | - |
| 1778028930 | 18.33° C | 52% | 1014.7 hPa | 0 mm | - | 143 W/m² | - |
| 1778028626 | 18.33° C | 54% | 1014.7 hPa | 0 mm | - | 159 W/m² | - |
| 1778028323 | 18.33° C | 55% | 1014.6 hPa | 0 mm | - | 184 W/m² | - |
| 1778028020 | 18.33° C | 54% | 1014.6 hPa | 0 mm | - | 221 W/m² | - |
| 1778027716 | 18.33° C | 54% | 1014.6 hPa | 0 mm | - | 229 W/m² | - |
| 1778027412 | 18.33° C | 53% | 1014.5 hPa | 0 mm | - | 231 W/m² | - |
| 1778027108 | 18.89° C | 52% | 1014.6 hPa | 0 mm | - | 263 W/m² | - |
| 1778026804 | 18.33° C | 52% | 1014.6 hPa | 0 mm | - | 289 W/m² | - |
| 1778026501 | 18.33° C | 53% | 1014.6 hPa | 0 mm | - | 287 W/m² | - |
| 1778026198 | 18.89° C | 51% | 1014.5 hPa | 0 mm | - | 315 W/m² | - |
| 1778025895 | 18.33° C | 52% | 1014.6 hPa | 0 mm | - | 339 W/m² | - |
| 1778025592 | 18.89° C | 52% | 1014.7 hPa | 0 mm | - | 287 W/m² | - |
| 1778025291 | 18.33° C | 54% | 1014.7 hPa | 0 mm | - | 371 W/m² | - |
| 1778024987 | 18.89° C | 51% | 1014.6 hPa | 0 mm | - | 394 W/m² | - |
| 1778024684 | 18.89° C | 52% | 1014.6 hPa | 0 mm | - | 260 W/m² | - |
| 1778024381 | 18.33° C | 54% | 1014.8 hPa | 0 mm | - | 151 W/m² | - |
| 1778024079 | 18.89° C | 51% | 1014.6 hPa | 0 mm | - | 474 W/m² | - |
| 1778023776 | 20° C | 48% | 1014.5 hPa | 0 mm | - | 458 W/m² | - |
| 1778023474 | 19.44° C | 51% | 1014.5 hPa | 0 mm | - | 466 W/m² | - |
| 1778023171 | 18.89° C | 49% | 1014.5 hPa | 0 mm | - | 488 W/m² | - |
* Rain latest hour (hover to see other rain measurements)
** Current wind speed in m/s (hover to see current wind gust speed)